sensor_id;sensor_type;location;lat;lon;timestamp;P1;durP1;ratioP1;P2;durP2;ratioP2
14776;SDS011;7480;43.124;25.686;2022-08-16T00:00:55;7.87;;;5.17;;
14776;SDS011;7480;43.124;25.686;2022-08-16T00:03:21;5.70;;;4.70;;
14776;SDS011;7480;43.124;25.686;2022-08-16T00:05:49;6.70;;;5.20;;
14776;SDS011;7480;43.124;25.686;2022-08-16T00:08:26;5.63;;;4.65;;
14776;SDS011;7480;43.124;25.686;2022-08-16T00:11:03;6.77;;;5.03;;
14776;SDS011;7480;43.124;25.686;2022-08-16T00:13:29;6.13;;;4.90;;
14776;SDS011;7480;43.124;25.686;2022-08-16T00:16:07;5.70;;;5.00;;
14776;SDS011;7480;43.124;25.686;2022-08-16T00:18:53;7.40;;;5.17;;
14776;SDS011;7480;43.124;25.686;2022-08-16T00:21:20;6.93;;;5.20;;
14776;SDS011;7480;43.124;25.686;2022-08-16T00:23:48;5.33;;;4.67;;
14776;SDS011;7480;43.124;25.686;2022-08-16T00:26:14;8.57;;;6.47;;
14776;SDS011;7480;43.124;25.686;2022-08-16T00:29:00;6.27;;;5.07;;
14776;SDS011;7480;43.124;25.686;2022-08-16T00:31:28;6.87;;;5.53;;
14776;SDS011;7480;43.124;25.686;2022-08-16T00:34:16;7.10;;;5.43;;
14776;SDS011;7480;43.124;25.686;2022-08-16T00:36:43;9.07;;;6.13;;
14776;SDS011;7480;43.124;25.686;2022-08-16T00:39:14;10.57;;;6.90;;
14776;SDS011;7480;43.124;25.686;2022-08-16T00:41:42;10.83;;;7.30;;
14776;SDS011;7480;43.124;25.686;2022-08-16T00:44:11;7.47;;;6.37;;
14776;SDS011;7480;43.124;25.686;2022-08-16T00:49:32;10.75;;;6.55;;
14776;SDS011;7480;43.124;25.686;2022-08-16T00:52:08;7.85;;;6.65;;
14776;SDS011;7480;43.124;25.686;2022-08-16T00:54:55;9.67;;;6.77;;
14776;SDS011;7480;43.124;25.686;2022-08-16T00:57:21;10.73;;;6.77;;
14776;SDS011;7480;43.124;25.686;2022-08-16T00:59:49;9.20;;;6.57;;
14776;SDS011;7480;43.124;25.686;2022-08-16T01:02:25;8.73;;;7.23;;
14776;SDS011;7480;43.124;25.686;2022-08-16T01:04:58;9.63;;;6.40;;
14776;SDS011;7480;43.124;25.686;2022-08-16T01:07:37;10.10;;;6.80;;
14776;SDS011;7480;43.124;25.686;2022-08-16T01:10:17;9.83;;;6.53;;
14776;SDS011;7480;43.124;25.686;2022-08-16T01:12:44;11.17;;;6.33;;
14776;SDS011;7480;43.124;25.686;2022-08-16T01:15:10;10.40;;;7.17;;
14776;SDS011;7480;43.124;25.686;2022-08-16T01:17:38;8.83;;;6.20;;
14776;SDS011;7480;43.124;25.686;2022-08-16T01:20:08;7.43;;;6.23;;
14776;SDS011;7480;43.124;25.686;2022-08-16T01:22:51;9.10;;;6.63;;
14776;SDS011;7480;43.124;25.686;2022-08-16T01:25:24;7.43;;;6.17;;
14776;SDS011;7480;43.124;25.686;2022-08-16T01:28:00;13.13;;;6.83;;
14776;SDS011;7480;43.124;25.686;2022-08-16T01:30:28;8.50;;;6.63;;
14776;SDS011;7480;43.124;25.686;2022-08-16T01:32:57;10.07;;;7.27;;
14776;SDS011;7480;43.124;25.686;2022-08-16T01:35:43;10.50;;;7.33;;
14776;SDS011;7480;43.124;25.686;2022-08-16T01:40:45;8.47;;;6.23;;
14776;SDS011;7480;43.124;25.686;2022-08-16T01:43:11;10.70;;;7.10;;
14776;SDS011;7480;43.124;25.686;2022-08-16T01:45:40;8.27;;;6.30;;
14776;SDS011;7480;43.124;25.686;2022-08-16T01:48:08;8.50;;;6.60;;
14776;SDS011;7480;43.124;25.686;2022-08-16T01:50:46;9.10;;;6.77;;
14776;SDS011;7480;43.124;25.686;2022-08-16T01:53:34;10.50;;;6.23;;
14776;SDS011;7480;43.124;25.686;2022-08-16T01:56:05;7.63;;;6.27;;
14776;SDS011;7480;43.124;25.686;2022-08-16T01:58:48;9.37;;;6.37;;
14776;SDS011;7480;43.124;25.686;2022-08-16T02:01:15;9.23;;;6.30;;
14776;SDS011;7480;43.124;25.686;2022-08-16T02:03:42;8.77;;;6.83;;
14776;SDS011;7480;43.124;25.686;2022-08-16T02:06:15;6.90;;;6.10;;
14776;SDS011;7480;43.124;25.686;2022-08-16T02:09:00;7.33;;;6.20;;
14776;SDS011;7480;43.124;25.686;2022-08-16T02:11:27;10.30;;;6.97;;
14776;SDS011;7480;43.124;25.686;2022-08-16T02:14:13;10.80;;;7.20;;
14776;SDS011;7480;43.124;25.686;2022-08-16T02:16:46;8.27;;;6.60;;
14776;SDS011;7480;43.124;25.686;2022-08-16T02:19:13;8.10;;;6.50;;
14776;SDS011;7480;43.124;25.686;2022-08-16T02:21:42;8.00;;;6.17;;
14776;SDS011;7480;43.124;25.686;2022-08-16T02:24:28;9.73;;;6.53;;
14776;SDS011;7480;43.124;25.686;2022-08-16T02:26:57;8.33;;;6.43;;
14776;SDS011;7480;43.124;25.686;2022-08-16T02:29:24;6.80;;;5.60;;
14776;SDS011;7480;43.124;25.686;2022-08-16T02:31:57;10.17;;;6.30;;
14776;SDS011;7480;43.124;25.686;2022-08-16T02:34:44;8.73;;;6.77;;
14776;SDS011;7480;43.124;25.686;2022-08-16T02:37:15;8.70;;;6.33;;
14776;SDS011;7480;43.124;25.686;2022-08-16T02:39:46;10.07;;;6.53;;
14776;SDS011;7480;43.124;25.686;2022-08-16T02:42:19;9.23;;;7.10;;
14776;SDS011;7480;43.124;25.686;2022-08-16T02:44:45;9.07;;;6.50;;
14776;SDS011;7480;43.124;25.686;2022-08-16T02:47:14;8.17;;;6.53;;
14776;SDS011;7480;43.124;25.686;2022-08-16T02:49:51;15.37;;;7.03;;
14776;SDS011;7480;43.124;25.686;2022-08-16T02:52:37;10.97;;;7.33;;
14776;SDS011;7480;43.124;25.686;2022-08-16T02:55:04;13.33;;;7.13;;
14776;SDS011;7480;43.124;25.686;2022-08-16T02:57:31;10.53;;;5.80;;
14776;SDS011;7480;43.124;25.686;2022-08-16T02:59:59;9.30;;;6.37;;
14776;SDS011;7480;43.124;25.686;2022-08-16T03:02:45;8.43;;;6.27;;
14776;SDS011;7480;43.124;25.686;2022-08-16T03:05:21;8.27;;;6.57;;
14776;SDS011;7480;43.124;25.686;2022-08-16T03:07:48;7.40;;;6.20;;
14776;SDS011;7480;43.124;25.686;2022-08-16T03:10:16;10.07;;;6.80;;
14776;SDS011;7480;43.124;25.686;2022-08-16T03:12:44;8.30;;;6.33;;
14776;SDS011;7480;43.124;25.686;2022-08-16T03:15:21;7.97;;;6.43;;
14776;SDS011;7480;43.124;25.686;2022-08-16T03:17:49;9.13;;;6.63;;
14776;SDS011;7480;43.124;25.686;2022-08-16T03:20:19;8.77;;;6.43;;
14776;SDS011;7480;43.124;25.686;2022-08-16T03:22:57;12.43;;;6.67;;
14776;SDS011;7480;43.124;25.686;2022-08-16T03:25:24;9.27;;;6.93;;
14776;SDS011;7480;43.124;25.686;2022-08-16T03:28:08;11.73;;;6.93;;
14776;SDS011;7480;43.124;25.686;2022-08-16T03:30:36;7.43;;;6.00;;
14776;SDS011;7480;43.124;25.686;2022-08-16T03:33:03;8.57;;;6.40;;
14776;SDS011;7480;43.124;25.686;2022-08-16T03:35:33;9.77;;;6.30;;
14776;SDS011;7480;43.124;25.686;2022-08-16T03:38:02;7.00;;;6.13;;
14776;SDS011;7480;43.124;25.686;2022-08-16T03:40:30;7.67;;;5.60;;
14776;SDS011;7480;43.124;25.686;2022-08-16T03:42:59;6.33;;;5.60;;
14776;SDS011;7480;43.124;25.686;2022-08-16T03:45:46;7.70;;;5.20;;
14776;SDS011;7480;43.124;25.686;2022-08-16T03:48:13;9.37;;;6.10;;
14776;SDS011;7480;43.124;25.686;2022-08-16T03:50:43;10.17;;;5.27;;
14776;SDS011;7480;43.124;25.686;2022-08-16T03:53:26;6.63;;;5.07;;
14776;SDS011;7480;43.124;25.686;2022-08-16T03:56:03;13.43;;;6.47;;
14776;SDS011;7480;43.124;25.686;2022-08-16T03:58:33;7.50;;;5.23;;
14776;SDS011;7480;43.124;25.686;2022-08-16T04:01:02;13.57;;;5.47;;
14776;SDS011;7480;43.124;25.686;2022-08-16T04:03:29;6.87;;;5.10;;
14776;SDS011;7480;43.124;25.686;2022-08-16T04:05:58;5.53;;;4.60;;
14776;SDS011;7480;43.124;25.686;2022-08-16T04:08:24;8.53;;;4.70;;
14776;SDS011;7480;43.124;25.686;2022-08-16T04:10:52;6.10;;;5.07;;
14776;SDS011;7480;43.124;25.686;2022-08-16T04:13:20;6.03;;;5.03;;
14776;SDS011;7480;43.124;25.686;2022-08-16T04:16:07;6.67;;;4.87;;
14776;SDS011;7480;43.124;25.686;2022-08-16T04:18:52;6.57;;;5.13;;
14776;SDS011;7480;43.124;25.686;2022-08-16T04:21:28;5.93;;;4.30;;
14776;SDS011;7480;43.124;25.686;2022-08-16T04:23:55;5.80;;;5.17;;
14776;SDS011;7480;43.124;25.686;2022-08-16T04:26:21;8.10;;;5.50;;
14776;SDS011;7480;43.124;25.686;2022-08-16T04:28:48;5.93;;;4.37;;
14776;SDS011;7480;43.124;25.686;2022-08-16T04:31:35;7.00;;;5.00;;
14776;SDS011;7480;43.124;25.686;2022-08-16T04:34:02;5.73;;;4.50;;
14776;SDS011;7480;43.124;25.686;2022-08-16T04:36:29;4.83;;;4.00;;
14776;SDS011;7480;43.124;25.686;2022-08-16T04:38:57;6.63;;;4.53;;
14776;SDS011;7480;43.124;25.686;2022-08-16T04:41:24;6.10;;;5.38;;
14776;SDS011;7480;43.124;25.686;2022-08-16T04:44:02;7.03;;;5.10;;
14776;SDS011;7480;43.124;25.686;2022-08-16T04:46:49;10.35;;;6.50;;
14776;SDS011;7480;43.124;25.686;2022-08-16T04:49:28;15.73;;;6.28;;
14776;SDS011;7480;43.124;25.686;2022-08-16T04:52:11;17.10;;;6.50;;
14776;SDS011;7480;43.124;25.686;2022-08-16T04:54:57;8.82;;;6.25;;
14776;SDS011;7480;43.124;25.686;2022-08-16T04:57:25;9.25;;;6.50;;
14776;SDS011;7480;43.124;25.686;2022-08-16T04:59:55;7.50;;;5.60;;
14776;SDS011;7480;43.124;25.686;2022-08-16T05:02:21;9.90;;;5.78;;
14776;SDS011;7480;43.124;25.686;2022-08-16T05:05:08;9.40;;;6.68;;
14776;SDS011;7480;43.124;25.686;2022-08-16T05:07:43;12.65;;;6.28;;
14776;SDS011;7480;43.124;25.686;2022-08-16T05:10:26;9.60;;;5.82;;
14776;SDS011;7480;43.124;25.686;2022-08-16T05:12:52;7.38;;;5.63;;
14776;SDS011;7480;43.124;25.686;2022-08-16T05:15:21;9.10;;;6.68;;
14776;SDS011;7480;43.124;25.686;2022-08-16T05:17:49;11.05;;;7.18;;
14776;SDS011;7480;43.124;25.686;2022-08-16T05:20:25;11.82;;;6.57;;
14776;SDS011;7480;43.124;25.686;2022-08-16T05:23:10;11.88;;;7.75;;
14776;SDS011;7480;43.124;25.686;2022-08-16T05:25:39;14.57;;;7.50;;
14776;SDS011;7480;43.124;25.686;2022-08-16T05:28:13;13.52;;;7.32;;
14776;SDS011;7480;43.124;25.686;2022-08-16T05:30:40;10.82;;;7.25;;
14776;SDS011;7480;43.124;25.686;2022-08-16T05:33:08;14.98;;;7.00;;
14776;SDS011;7480;43.124;25.686;2022-08-16T05:35:42;10.82;;;6.93;;
14776;SDS011;7480;43.124;25.686;2022-08-16T05:38:08;8.15;;;6.35;;
14776;SDS011;7480;43.124;25.686;2022-08-16T05:40:55;7.75;;;6.28;;
14776;SDS011;7480;43.124;25.686;2022-08-16T05:43:25;12.15;;;7.47;;
14776;SDS011;7480;43.124;25.686;2022-08-16T05:45:57;7.80;;;5.70;;
14776;SDS011;7480;43.124;25.686;2022-08-16T05:48:24;11.32;;;7.07;;
14776;SDS011;7480;43.124;25.686;2022-08-16T05:50:52;11.27;;;6.55;;
14776;SDS011;7480;43.124;25.686;2022-08-16T05:53:19;9.98;;;6.57;;
14776;SDS011;7480;43.124;25.686;2022-08-16T05:55:49;8.90;;;5.95;;
14776;SDS011;7480;43.124;25.686;2022-08-16T05:58:16;7.90;;;5.63;;
14776;SDS011;7480;43.124;25.686;2022-08-16T06:00:57;7.78;;;6.00;;
14776;SDS011;7480;43.124;25.686;2022-08-16T06:03:23;10.65;;;6.20;;
14776;SDS011;7480;43.124;25.686;2022-08-16T06:05:50;10.02;;;5.82;;
14776;SDS011;7480;43.124;25.686;2022-08-16T06:08:19;10.88;;;6.15;;
14776;SDS011;7480;43.124;25.686;2022-08-16T06:10:57;13.57;;;6.57;;
14776;SDS011;7480;43.124;25.686;2022-08-16T06:13:46;8.06;;;5.73;;
14776;SDS011;7480;43.124;25.686;2022-08-16T06:16:14;7.05;;;5.55;;
14776;SDS011;7480;43.124;25.686;2022-08-16T06:18:43;12.00;;;6.32;;
14776;SDS011;7480;43.124;25.686;2022-08-16T06:21:13;8.00;;;5.75;;
14776;SDS011;7480;43.124;25.686;2022-08-16T06:23:49;10.15;;;6.32;;
14776;SDS011;7480;43.124;25.686;2022-08-16T06:26:19;13.60;;;5.40;;
14776;SDS011;7480;43.124;25.686;2022-08-16T06:28:46;10.95;;;6.35;;
14776;SDS011;7480;43.124;25.686;2022-08-16T06:31:15;11.27;;;5.63;;
14776;SDS011;7480;43.124;25.686;2022-08-16T06:33:42;10.75;;;6.15;;
14776;SDS011;7480;43.124;25.686;2022-08-16T06:36:10;9.75;;;5.97;;
14776;SDS011;7480;43.124;25.686;2022-08-16T06:38:39;8.93;;;4.93;;
14776;SDS011;7480;43.124;25.686;2022-08-16T06:41:21;11.48;;;5.50;;
14776;SDS011;7480;43.124;25.686;2022-08-16T06:43:49;8.48;;;5.80;;
14776;SDS011;7480;43.124;25.686;2022-08-16T06:46:27;6.43;;;4.90;;
14776;SDS011;7480;43.124;25.686;2022-08-16T06:48:57;12.90;;;6.00;;
14776;SDS011;7480;43.124;25.686;2022-08-16T06:51:24;6.88;;;4.63;;
14776;SDS011;7480;43.124;25.686;2022-08-16T06:54:10;8.65;;;4.72;;
14776;SDS011;7480;43.124;25.686;2022-08-16T06:56:39;7.68;;;4.95;;
14776;SDS011;7480;43.124;25.686;2022-08-16T06:59:06;8.52;;;5.00;;
14776;SDS011;7480;43.124;25.686;2022-08-16T07:01:35;6.28;;;4.93;;
14776;SDS011;7480;43.124;25.686;2022-08-16T07:04:18;6.68;;;5.03;;
14776;SDS011;7480;43.124;25.686;2022-08-16T07:06:59;5.50;;;4.57;;
14776;SDS011;7480;43.124;25.686;2022-08-16T07:09:25;6.68;;;4.85;;
14776;SDS011;7480;43.124;25.686;2022-08-16T07:11:56;5.78;;;5.10;;
14776;SDS011;7480;43.124;25.686;2022-08-16T07:14:31;10.20;;;5.13;;
14776;SDS011;7480;43.124;25.686;2022-08-16T07:16:58;6.15;;;5.13;;
14776;SDS011;7480;43.124;25.686;2022-08-16T07:19:25;5.90;;;4.53;;
14776;SDS011;7480;43.124;25.686;2022-08-16T07:22:13;6.75;;;5.15;;
14776;SDS011;7480;43.124;25.686;2022-08-16T07:25:00;6.38;;;4.22;;
14776;SDS011;7480;43.124;25.686;2022-08-16T07:27:26;9.10;;;4.20;;
14776;SDS011;7480;43.124;25.686;2022-08-16T07:29:57;5.80;;;4.68;;
14776;SDS011;7480;43.124;25.686;2022-08-16T07:32:23;6.28;;;4.32;;
14776;SDS011;7480;43.124;25.686;2022-08-16T07:34:55;7.15;;;4.97;;
14776;SDS011;7480;43.124;25.686;2022-08-16T07:37:21;5.00;;;4.15;;
14776;SDS011;7480;43.124;25.686;2022-08-16T07:39:50;4.60;;;4.15;;
14776;SDS011;7480;43.124;25.686;2022-08-16T07:42:16;5.20;;;4.40;;
14776;SDS011;7480;43.124;25.686;2022-08-16T07:44:53;4.53;;;3.97;;
14776;SDS011;7480;43.124;25.686;2022-08-16T07:47:22;5.10;;;4.13;;
14776;SDS011;7480;43.124;25.686;2022-08-16T07:49:57;4.97;;;4.15;;
14776;SDS011;7480;43.124;25.686;2022-08-16T07:52:24;5.65;;;4.18;;
14776;SDS011;7480;43.124;25.686;2022-08-16T07:54:55;4.38;;;3.85;;
14776;SDS011;7480;43.124;25.686;2022-08-16T07:57:22;6.20;;;3.72;;
14776;SDS011;7480;43.124;25.686;2022-08-16T07:59:49;4.88;;;4.35;;
14776;SDS011;7480;43.124;25.686;2022-08-16T08:02:17;4.90;;;4.20;;
14776;SDS011;7480;43.124;25.686;2022-08-16T08:04:46;5.30;;;4.57;;
14776;SDS011;7480;43.124;25.686;2022-08-16T08:07:13;4.93;;;3.95;;
14776;SDS011;7480;43.124;25.686;2022-08-16T08:09:41;5.72;;;4.40;;
14776;SDS011;7480;43.124;25.686;2022-08-16T08:12:09;4.57;;;3.95;;
14776;SDS011;7480;43.124;25.686;2022-08-16T08:14:55;6.05;;;4.00;;
14776;SDS011;7480;43.124;25.686;2022-08-16T08:17:22;5.30;;;3.90;;
14776;SDS011;7480;43.124;25.686;2022-08-16T08:19:48;6.43;;;4.15;;
14776;SDS011;7480;43.124;25.686;2022-08-16T08:22:18;7.93;;;4.03;;
14776;SDS011;7480;43.124;25.686;2022-08-16T08:24:48;4.50;;;3.55;;
14776;SDS011;7480;43.124;25.686;2022-08-16T08:27:15;5.53;;;3.90;;
14776;SDS011;7480;43.124;25.686;2022-08-16T08:29:48;6.63;;;4.57;;
14776;SDS011;7480;43.124;25.686;2022-08-16T08:32:35;6.80;;;4.55;;
14776;SDS011;7480;43.124;25.686;2022-08-16T08:35:22;7.97;;;4.28;;
14776;SDS011;7480;43.124;25.686;2022-08-16T08:37:52;4.68;;;3.75;;
14776;SDS011;7480;43.124;25.686;2022-08-16T08:40:22;4.63;;;3.92;;
14776;SDS011;7480;43.124;25.686;2022-08-16T08:42:52;5.40;;;4.13;;
14776;SDS011;7480;43.124;25.686;2022-08-16T08:45:25;6.32;;;4.28;;
14776;SDS011;7480;43.124;25.686;2022-08-16T08:48:11;5.85;;;4.32;;
14776;SDS011;7480;43.124;25.686;2022-08-16T08:50:58;7.75;;;3.50;;
14776;SDS011;7480;43.124;25.686;2022-08-16T08:53:24;4.97;;;4.47;;
14776;SDS011;7480;43.124;25.686;2022-08-16T08:55:56;6.00;;;4.20;;
14776;SDS011;7480;43.124;25.686;2022-08-16T08:58:25;4.50;;;4.10;;
14776;SDS011;7480;43.124;25.686;2022-08-16T09:01:00;6.80;;;4.35;;
14776;SDS011;7480;43.124;25.686;2022-08-16T09:03:27;4.53;;;3.85;;
14776;SDS011;7480;43.124;25.686;2022-08-16T09:05:58;6.50;;;4.30;;
14776;SDS011;7480;43.124;25.686;2022-08-16T09:08:25;5.13;;;4.45;;
14776;SDS011;7480;43.124;25.686;2022-08-16T09:10:53;6.90;;;4.00;;
14776;SDS011;7480;43.124;25.686;2022-08-16T09:13:28;5.30;;;4.30;;
14776;SDS011;7480;43.124;25.686;2022-08-16T09:15:58;4.00;;;3.60;;
14776;SDS011;7480;43.124;25.686;2022-08-16T09:18:24;7.93;;;4.35;;
14776;SDS011;7480;43.124;25.686;2022-08-16T09:21:01;7.25;;;4.47;;
14776;SDS011;7480;43.124;25.686;2022-08-16T09:23:28;4.97;;;4.18;;
14776;SDS011;7480;43.124;25.686;2022-08-16T09:26:03;5.20;;;3.78;;
14776;SDS011;7480;43.124;25.686;2022-08-16T09:28:49;4.70;;;4.07;;
14776;SDS011;7480;43.124;25.686;2022-08-16T09:31:36;6.20;;;4.03;;
14776;SDS011;7480;43.124;25.686;2022-08-16T09:34:07;4.10;;;3.67;;
14776;SDS011;7480;43.124;25.686;2022-08-16T09:36:36;4.50;;;3.80;;
14776;SDS011;7480;43.124;25.686;2022-08-16T09:39:11;4.90;;;3.83;;
14776;SDS011;7480;43.124;25.686;2022-08-16T09:41:41;6.15;;;4.03;;
14776;SDS011;7480;43.124;25.686;2022-08-16T09:44:18;4.85;;;3.97;;
14776;SDS011;7480;43.124;25.686;2022-08-16T09:47:09;4.68;;;3.50;;
14776;SDS011;7480;43.124;25.686;2022-08-16T09:49:36;5.45;;;4.30;;
14776;SDS011;7480;43.124;25.686;2022-08-16T09:52:06;4.18;;;3.78;;
14776;SDS011;7480;43.124;25.686;2022-08-16T09:54:35;5.15;;;4.05;;
14776;SDS011;7480;43.124;25.686;2022-08-16T09:57:02;5.10;;;4.22;;
14776;SDS011;7480;43.124;25.686;2022-08-16T09:59:29;4.45;;;3.85;;
14776;SDS011;7480;43.124;25.686;2022-08-16T10:02:04;5.35;;;4.50;;
14776;SDS011;7480;43.124;25.686;2022-08-16T10:04:50;5.20;;;4.30;;
14776;SDS011;7480;43.124;25.686;2022-08-16T10:07:20;4.93;;;3.85;;
14776;SDS011;7480;43.124;25.686;2022-08-16T10:09:47;5.90;;;4.28;;
14776;SDS011;7480;43.124;25.686;2022-08-16T10:12:30;4.75;;;4.03;;
14776;SDS011;7480;43.124;25.686;2022-08-16T10:15:21;6.20;;;4.00;;
14776;SDS011;7480;43.124;25.686;2022-08-16T10:17:50;5.03;;;4.03;;
14776;SDS011;7480;43.124;25.686;2022-08-16T10:20:28;4.20;;;3.80;;
14776;SDS011;7480;43.124;25.686;2022-08-16T10:22:54;4.93;;;4.32;;
14776;SDS011;7480;43.124;25.686;2022-08-16T10:25:31;3.88;;;3.42;;
14776;SDS011;7480;43.124;25.686;2022-08-16T10:28:17;4.50;;;4.10;;
14776;SDS011;7480;43.124;25.686;2022-08-16T10:30:54;5.00;;;3.60;;
14776;SDS011;7480;43.124;25.686;2022-08-16T10:33:24;5.47;;;4.30;;
14776;SDS011;7480;43.124;25.686;2022-08-16T10:35:55;4.63;;;4.18;;
14776;SDS011;7480;43.124;25.686;2022-08-16T10:38:28;4.78;;;3.60;;
14776;SDS011;7480;43.124;25.686;2022-08-16T10:40:58;4.82;;;4.18;;
14776;SDS011;7480;43.124;25.686;2022-08-16T10:43:25;4.10;;;3.67;;
14776;SDS011;7480;43.124;25.686;2022-08-16T10:45:56;7.82;;;4.45;;
14776;SDS011;7480;43.124;25.686;2022-08-16T10:48:26;6.88;;;4.57;;
14776;SDS011;7480;43.124;25.686;2022-08-16T10:50:54;9.00;;;4.25;;
14776;SDS011;7480;43.124;25.686;2022-08-16T10:53:27;4.47;;;3.22;;
14776;SDS011;7480;43.124;25.686;2022-08-16T10:55:59;7.85;;;3.80;;
14776;SDS011;7480;43.124;25.686;2022-08-16T10:58:27;5.07;;;3.83;;
14776;SDS011;7480;43.124;25.686;2022-08-16T11:01:00;5.45;;;3.47;;
14776;SDS011;7480;43.124;25.686;2022-08-16T11:03:47;4.57;;;3.53;;
14776;SDS011;7480;43.124;25.686;2022-08-16T11:06:20;10.70;;;4.38;;
14776;SDS011;7480;43.124;25.686;2022-08-16T11:08:52;4.00;;;3.60;;
14776;SDS011;7480;43.124;25.686;2022-08-16T11:11:39;4.35;;;3.47;;
14776;SDS011;7480;43.124;25.686;2022-08-16T11:14:25;4.88;;;3.97;;
14776;SDS011;7480;43.124;25.686;2022-08-16T11:16:52;4.05;;;3.65;;
14776;SDS011;7480;43.124;25.686;2022-08-16T11:19:34;4.22;;;3.25;;
14776;SDS011;7480;43.124;25.686;2022-08-16T11:22:21;7.20;;;4.00;;
14776;SDS011;7480;43.124;25.686;2022-08-16T11:25:08;3.53;;;3.04;;
14776;SDS011;7480;43.124;25.686;2022-08-16T11:27:55;4.18;;;3.60;;
14776;SDS011;7480;43.124;25.686;2022-08-16T11:30:22;3.78;;;3.42;;
14776;SDS011;7480;43.124;25.686;2022-08-16T11:33:04;4.35;;;3.28;;
14776;SDS011;7480;43.124;25.686;2022-08-16T11:35:31;4.70;;;3.55;;
14776;SDS011;7480;43.124;25.686;2022-08-16T11:38:19;3.60;;;2.90;;
14776;SDS011;7480;43.124;25.686;2022-08-16T11:41:06;2.92;;;2.63;;
14776;SDS011;7480;43.124;25.686;2022-08-16T11:43:36;3.50;;;2.97;;
14776;SDS011;7480;43.124;25.686;2022-08-16T11:46:04;3.75;;;3.00;;
14776;SDS011;7480;43.124;25.686;2022-08-16T11:48:53;4.28;;;3.38;;
14776;SDS011;7480;43.124;25.686;2022-08-16T11:51:20;4.13;;;3.42;;
14776;SDS011;7480;43.124;25.686;2022-08-16T11:53:47;4.38;;;3.20;;
14776;SDS011;7480;43.124;25.686;2022-08-16T11:56:13;3.80;;;3.40;;
14776;SDS011;7480;43.124;25.686;2022-08-16T11:58:44;3.53;;;3.13;;
14776;SDS011;7480;43.124;25.686;2022-08-16T12:01:22;3.45;;;3.03;;
14776;SDS011;7480;43.124;25.686;2022-08-16T12:04:08;5.45;;;2.97;;
14776;SDS011;7480;43.124;25.686;2022-08-16T12:06:40;5.00;;;2.58;;
14776;SDS011;7480;43.124;25.686;2022-08-16T12:09:09;4.57;;;3.15;;
14776;SDS011;7480;43.124;25.686;2022-08-16T12:11:37;4.72;;;3.25;;
14776;SDS011;7480;43.124;25.686;2022-08-16T12:14:04;4.75;;;3.47;;
14776;SDS011;7480;43.124;25.686;2022-08-16T12:16:33;3.67;;;3.10;;
14776;SDS011;7480;43.124;25.686;2022-08-16T12:19:04;3.35;;;3.05;;
14776;SDS011;7480;43.124;25.686;2022-08-16T12:21:35;3.90;;;3.38;;
14776;SDS011;7480;43.124;25.686;2022-08-16T12:24:22;3.60;;;3.15;;
14776;SDS011;7480;43.124;25.686;2022-08-16T12:26:49;3.53;;;3.05;;
14776;SDS011;7480;43.124;25.686;2022-08-16T12:29:15;3.25;;;2.90;;
14776;SDS011;7480;43.124;25.686;2022-08-16T12:31:42;4.30;;;3.47;;
14776;SDS011;7480;43.124;25.686;2022-08-16T12:34:27;4.75;;;3.53;;
14776;SDS011;7480;43.124;25.686;2022-08-16T12:36:54;4.03;;;3.20;;
14776;SDS011;7480;43.124;25.686;2022-08-16T12:39:21;3.72;;;3.28;;
14776;SDS011;7480;43.124;25.686;2022-08-16T12:41:54;4.30;;;3.30;;
14776;SDS011;7480;43.124;25.686;2022-08-16T12:44:22;3.83;;;3.42;;
14776;SDS011;7480;43.124;25.686;2022-08-16T12:46:50;4.00;;;3.08;;
14776;SDS011;7480;43.124;25.686;2022-08-16T12:49:40;5.40;;;3.13;;
14776;SDS011;7480;43.124;25.686;2022-08-16T12:52:07;3.75;;;2.65;;
14776;SDS011;7480;43.124;25.686;2022-08-16T12:54:34;3.22;;;2.78;;
14776;SDS011;7480;43.124;25.686;2022-08-16T12:57:07;4.43;;;3.40;;
14776;SDS011;7480;43.124;25.686;2022-08-16T12:59:39;4.15;;;3.22;;
14776;SDS011;7480;43.124;25.686;2022-08-16T13:02:07;4.15;;;3.40;;
14776;SDS011;7480;43.124;25.686;2022-08-16T13:04:48;3.90;;;3.15;;
14776;SDS011;7480;43.124;25.686;2022-08-16T13:07:15;4.63;;;3.08;;
14776;SDS011;7480;43.124;25.686;2022-08-16T13:09:52;3.30;;;2.85;;
14776;SDS011;7480;43.124;25.686;2022-08-16T13:12:23;3.38;;;2.80;;
14776;SDS011;7480;43.124;25.686;2022-08-16T13:14:52;3.33;;;2.95;;
14776;SDS011;7480;43.124;25.686;2022-08-16T13:17:21;2.83;;;2.50;;
14776;SDS011;7480;43.124;25.686;2022-08-16T13:19:52;4.97;;;2.47;;
14776;SDS011;7480;43.124;25.686;2022-08-16T13:22:34;2.85;;;2.55;;
14776;SDS011;7480;43.124;25.686;2022-08-16T13:25:01;6.55;;;2.75;;
14776;SDS011;7480;43.124;25.686;2022-08-16T13:27:31;2.80;;;2.55;;
14776;SDS011;7480;43.124;25.686;2022-08-16T13:30:18;3.33;;;2.47;;
14776;SDS011;7480;43.124;25.686;2022-08-16T13:33:02;3.70;;;2.95;;
14776;SDS011;7480;43.124;25.686;2022-08-16T13:35:44;3.45;;;2.85;;
14776;SDS011;7480;43.124;25.686;2022-08-16T13:38:21;3.72;;;2.78;;
14776;SDS011;7480;43.124;25.686;2022-08-16T13:40:52;2.92;;;2.70;;
14776;SDS011;7480;43.124;25.686;2022-08-16T13:43:21;3.83;;;2.63;;
14776;SDS011;7480;43.124;25.686;2022-08-16T13:45:48;2.88;;;2.60;;
14776;SDS011;7480;43.124;25.686;2022-08-16T13:48:15;4.18;;;2.70;;
14776;SDS011;7480;43.124;25.686;2022-08-16T13:50:49;2.95;;;2.38;;
14776;SDS011;7480;43.124;25.686;2022-08-16T13:53:17;3.42;;;3.03;;
14776;SDS011;7480;43.124;25.686;2022-08-16T13:55:50;3.05;;;2.58;;
14776;SDS011;7480;43.124;25.686;2022-08-16T13:58:25;3.50;;;2.75;;
14776;SDS011;7480;43.124;25.686;2022-08-16T14:01:11;3.10;;;2.80;;
14776;SDS011;7480;43.124;25.686;2022-08-16T14:03:38;2.70;;;2.50;;
14776;SDS011;7480;43.124;25.686;2022-08-16T14:06:06;3.90;;;2.85;;
14776;SDS011;7480;43.124;25.686;2022-08-16T14:08:36;2.95;;;2.65;;
14776;SDS011;7480;43.124;25.686;2022-08-16T14:11:07;2.95;;;2.70;;
14776;SDS011;7480;43.124;25.686;2022-08-16T14:13:37;3.72;;;3.03;;
14776;SDS011;7480;43.124;25.686;2022-08-16T14:16:04;3.08;;;2.80;;
14776;SDS011;7480;43.124;25.686;2022-08-16T14:18:48;4.00;;;3.08;;
14776;SDS011;7480;43.124;25.686;2022-08-16T14:21:17;2.90;;;2.70;;
14776;SDS011;7480;43.124;25.686;2022-08-16T14:23:47;4.22;;;3.20;;
14776;SDS011;7480;43.124;25.686;2022-08-16T14:26:13;3.35;;;3.03;;
14776;SDS011;7480;43.124;25.686;2022-08-16T14:28:40;3.42;;;3.00;;
14776;SDS011;7480;43.124;25.686;2022-08-16T14:31:07;3.67;;;3.35;;
14776;SDS011;7480;43.124;25.686;2022-08-16T14:33:34;3.42;;;3.13;;
14776;SDS011;7480;43.124;25.686;2022-08-16T14:36:01;3.50;;;3.20;;
14776;SDS011;7480;43.124;25.686;2022-08-16T14:38:28;3.55;;;3.20;;
14776;SDS011;7480;43.124;25.686;2022-08-16T14:41:02;3.88;;;3.03;;
14776;SDS011;7480;43.124;25.686;2022-08-16T14:43:35;4.97;;;3.42;;
14776;SDS011;7480;43.124;25.686;2022-08-16T14:46:01;3.78;;;3.30;;
14776;SDS011;7480;43.124;25.686;2022-08-16T14:48:32;4.30;;;3.88;;
14776;SDS011;7480;43.124;25.686;2022-08-16T14:50:59;4.47;;;3.60;;
14776;SDS011;7480;43.124;25.686;2022-08-16T14:53:26;5.88;;;4.05;;
14776;SDS011;7480;43.124;25.686;2022-08-16T14:55:53;4.18;;;3.70;;
14776;SDS011;7480;43.124;25.686;2022-08-16T14:58:19;4.25;;;3.72;;
14776;SDS011;7480;43.124;25.686;2022-08-16T15:01:02;3.85;;;3.35;;
14776;SDS011;7480;43.124;25.686;2022-08-16T15:03:29;4.72;;;2.90;;
14776;SDS011;7480;43.124;25.686;2022-08-16T15:05:58;7.68;;;4.07;;
14776;SDS011;7480;43.124;25.686;2022-08-16T15:08:27;3.80;;;3.50;;
14776;SDS011;7480;43.124;25.686;2022-08-16T15:11:02;4.00;;;3.40;;
14776;SDS011;7480;43.124;25.686;2022-08-16T15:13:29;4.57;;;3.90;;
14776;SDS011;7480;43.124;25.686;2022-08-16T15:15:55;4.78;;;4.18;;
14776;SDS011;7480;43.124;25.686;2022-08-16T15:18:28;4.47;;;3.97;;
14776;SDS011;7480;43.124;25.686;2022-08-16T15:20:57;4.35;;;3.70;;
14776;SDS011;7480;43.124;25.686;2022-08-16T15:23:24;5.13;;;4.63;;